Naha Airport
ROAH : now visible

Airfield :











YOU CAN JOIN US ON...

 
LOGIN :

Register | Disclaimer

   EN    FR    IT 

 









Legend :    VFR   Marginal VFR   IFR   Intensive IFR   Very Intensive IFR
Visi :
Ceiling :
>= 8 km
>= 3000ft
5 to 8 km
1000 to 3000 ft
1500m to 5 km
500 to 1000 ft
800 to 1500m
200 to 500 ft
< 800m
< 200 ft
Symbols :   Thunderstorms  Fog  Heavy snow  Heavy precipitations  Wind > 20 kt






- Airport Elevation : 12 ft
- IATA code : OKA


ROAH - Naha

CURRENT METAR :
  • 152330Z 03007KT 9999 FEW040 20/16 Q1021

EXPIRED METARs :
  • 152300Z 04005KT 9999 FEW040 19/15 Q1021 RMK 1SC040 A3016
  • 152230Z 06003KT 020V090 9999 FEW040 18/15 Q1021 RMK 1SC040 A3016
  • 152200Z 36003KT 9999 FEW040 18/15 Q1021
  • 152130Z VRB02KT 9999 FEW040 17/14 Q1021 RMK 1SC040 A3015
  • 152100Z 04006KT 9999 FEW040 18/15 Q1020 RMK 1SC040 A3014

TAF TAF ROAH
Valid from the 15 at 18:00 until the 17 at 00:00 UTC


151711Z 1518/1700 04005KT 9999 FEW035
BECMG 1615/1618 14005KT



MET'MAP, your aeronautical weather chart ! - Copyright ORBIFLY December 2007 - Disclaimer

ORBIFLY MET'MAP TEAM :

Programming & Development : Alexandra Zaïnal
Concept & original design : Baudouin d'Aumeries
Assistance for programming : Marc-Olivier Méhu
Technical & hardware support : Manuel Goepfert

Contact : metmap@orbifly.com




SOURCES & CREDITS :

   NOAA       Earth
Advisory